sensor_id;sensor_type;location;lat;lon;timestamp;P1;durP1;ratioP1;P2;durP2;ratioP2
25972;SDS011;13765;51.166;4.466;2023-07-24T00:01:45;11.23;;;3.72;;
25972;SDS011;13765;51.166;4.466;2023-07-24T00:04:13;12.90;;;4.07;;
25972;SDS011;13765;51.166;4.466;2023-07-24T00:06:39;10.10;;;3.63;;
25972;SDS011;13765;51.166;4.466;2023-07-24T00:09:07;14.52;;;3.88;;
25972;SDS011;13765;51.166;4.466;2023-07-24T00:11:32;12.13;;;3.92;;
25972;SDS011;13765;51.166;4.466;2023-07-24T00:14:00;9.27;;;3.85;;
25972;SDS011;13765;51.166;4.466;2023-07-24T00:16:28;11.23;;;4.10;;
25972;SDS011;13765;51.166;4.466;2023-07-24T00:18:54;9.98;;;3.72;;
25972;SDS011;13765;51.166;4.466;2023-07-24T00:21:19;9.27;;;3.78;;
25972;SDS011;13765;51.166;4.466;2023-07-24T00:23:47;24.15;;;5.45;;
25972;SDS011;13765;51.166;4.466;2023-07-24T00:26:13;11.50;;;3.17;;
25972;SDS011;13765;51.166;4.466;2023-07-24T00:28:39;12.25;;;3.33;;
25972;SDS011;13765;51.166;4.466;2023-07-24T00:31:04;13.57;;;4.53;;
25972;SDS011;13765;51.166;4.466;2023-07-24T00:33:32;13.88;;;4.07;;
25972;SDS011;13765;51.166;4.466;2023-07-24T00:35:58;9.93;;;3.60;;
25972;SDS011;13765;51.166;4.466;2023-07-24T00:38:24;13.15;;;4.13;;
25972;SDS011;13765;51.166;4.466;2023-07-24T00:40:49;8.50;;;3.08;;
25972;SDS011;13765;51.166;4.466;2023-07-24T00:43:15;8.20;;;2.67;;
25972;SDS011;13765;51.166;4.466;2023-07-24T00:45:41;9.50;;;2.95;;
25972;SDS011;13765;51.166;4.466;2023-07-24T00:48:09;7.60;;;2.30;;
25972;SDS011;13765;51.166;4.466;2023-07-24T00:50:35;8.07;;;2.78;;
25972;SDS011;13765;51.166;4.466;2023-07-24T00:53:02;5.47;;;2.22;;
25972;SDS011;13765;51.166;4.466;2023-07-24T00:55:31;6.03;;;2.60;;
25972;SDS011;13765;51.166;4.466;2023-07-24T00:57:59;5.90;;;2.45;;
25972;SDS011;13765;51.166;4.466;2023-07-24T01:00:27;6.68;;;2.45;;
25972;SDS011;13765;51.166;4.466;2023-07-24T01:02:53;6.57;;;2.53;;
25972;SDS011;13765;51.166;4.466;2023-07-24T01:05:20;8.38;;;2.85;;
25972;SDS011;13765;51.166;4.466;2023-07-24T01:07:47;8.55;;;2.55;;
25972;SDS011;13765;51.166;4.466;2023-07-24T01:10:15;7.80;;;2.83;;
25972;SDS011;13765;51.166;4.466;2023-07-24T01:12:57;5.38;;;2.00;;
25972;SDS011;13765;51.166;4.466;2023-07-24T01:15:33;3.85;;;2.40;;
25972;SDS011;13765;51.166;4.466;2023-07-24T01:18:08;4.82;;;1.85;;
25972;SDS011;13765;51.166;4.466;2023-07-24T01:20:40;5.07;;;2.08;;
25972;SDS011;13765;51.166;4.466;2023-07-24T01:26:02;5.43;;;2.45;;
25972;SDS011;13765;51.166;4.466;2023-07-24T01:28:28;5.50;;;2.72;;
25972;SDS011;13765;51.166;4.466;2023-07-24T01:30:54;6.22;;;2.38;;
25972;SDS011;13765;51.166;4.466;2023-07-24T01:33:23;4.63;;;2.05;;
25972;SDS011;13765;51.166;4.466;2023-07-24T01:35:53;6.75;;;3.05;;
25972;SDS011;13765;51.166;4.466;2023-07-24T01:38:21;6.97;;;2.55;;
25972;SDS011;13765;51.166;4.466;2023-07-24T01:40:50;6.82;;;2.17;;
25972;SDS011;13765;51.166;4.466;2023-07-24T01:43:17;6.07;;;2.25;;
25972;SDS011;13765;51.166;4.466;2023-07-24T01:45:45;6.63;;;2.97;;
25972;SDS011;13765;51.166;4.466;2023-07-24T01:48:11;8.18;;;2.70;;
25972;SDS011;13765;51.166;4.466;2023-07-24T01:50:39;9.25;;;2.75;;
25972;SDS011;13765;51.166;4.466;2023-07-24T01:53:04;6.55;;;2.50;;
25972;SDS011;13765;51.166;4.466;2023-07-24T01:55:30;9.10;;;2.67;;
25972;SDS011;13765;51.166;4.466;2023-07-24T01:57:58;8.35;;;2.92;;
25972;SDS011;13765;51.166;4.466;2023-07-24T02:00:26;9.23;;;3.35;;
25972;SDS011;13765;51.166;4.466;2023-07-24T02:02:52;7.07;;;2.85;;
25972;SDS011;13765;51.166;4.466;2023-07-24T02:05:20;5.45;;;2.38;;
25972;SDS011;13765;51.166;4.466;2023-07-24T02:07:46;7.15;;;2.63;;
25972;SDS011;13765;51.166;4.466;2023-07-24T02:10:14;7.47;;;2.60;;
25972;SDS011;13765;51.166;4.466;2023-07-24T02:12:39;5.47;;;2.60;;
25972;SDS011;13765;51.166;4.466;2023-07-24T02:15:08;8.75;;;2.80;;
25972;SDS011;13765;51.166;4.466;2023-07-24T02:17:34;5.28;;;2.80;;
25972;SDS011;13765;51.166;4.466;2023-07-24T02:20:03;8.13;;;3.33;;
25972;SDS011;13765;51.166;4.466;2023-07-24T02:22:29;6.80;;;3.00;;
25972;SDS011;13765;51.166;4.466;2023-07-24T02:24:55;6.10;;;2.80;;
25972;SDS011;13765;51.166;4.466;2023-07-24T02:27:27;5.50;;;2.50;;
25972;SDS011;13765;51.166;4.466;2023-07-24T02:29:59;5.55;;;2.38;;
25972;SDS011;13765;51.166;4.466;2023-07-24T02:32:25;8.70;;;3.17;;
25972;SDS011;13765;51.166;4.466;2023-07-24T02:34:53;4.72;;;2.17;;
25972;SDS011;13765;51.166;4.466;2023-07-24T02:37:21;5.95;;;2.67;;
25972;SDS011;13765;51.166;4.466;2023-07-24T02:39:46;7.22;;;2.58;;
25972;SDS011;13765;51.166;4.466;2023-07-24T02:42:12;4.82;;;2.30;;
25972;SDS011;13765;51.166;4.466;2023-07-24T02:44:38;4.60;;;2.17;;
25972;SDS011;13765;51.166;4.466;2023-07-24T02:47:03;6.75;;;2.60;;
25972;SDS011;13765;51.166;4.466;2023-07-24T02:49:29;7.55;;;2.92;;
25972;SDS011;13765;51.166;4.466;2023-07-24T02:52:01;8.48;;;2.60;;
25972;SDS011;13765;51.166;4.466;2023-07-24T02:54:27;7.00;;;2.67;;
25972;SDS011;13765;51.166;4.466;2023-07-24T02:56:55;7.13;;;2.65;;
25972;SDS011;13765;51.166;4.466;2023-07-24T02:59:21;7.40;;;2.42;;
25972;SDS011;13765;51.166;4.466;2023-07-24T03:01:46;5.70;;;2.58;;
25972;SDS011;13765;51.166;4.466;2023-07-24T03:04:12;8.02;;;2.90;;
25972;SDS011;13765;51.166;4.466;2023-07-24T03:06:40;6.03;;;2.80;;
25972;SDS011;13765;51.166;4.466;2023-07-24T03:09:06;6.50;;;3.00;;
25972;SDS011;13765;51.166;4.466;2023-07-24T03:11:32;9.82;;;3.13;;
25972;SDS011;13765;51.166;4.466;2023-07-24T03:13:57;6.45;;;2.75;;
25972;SDS011;13765;51.166;4.466;2023-07-24T03:16:25;8.98;;;2.97;;
25972;SDS011;13765;51.166;4.466;2023-07-24T03:18:53;6.45;;;2.33;;
25972;SDS011;13765;51.166;4.466;2023-07-24T03:21:23;7.05;;;2.78;;
25972;SDS011;13765;51.166;4.466;2023-07-24T03:23:49;6.43;;;2.83;;
25972;SDS011;13765;51.166;4.466;2023-07-24T03:26:14;9.63;;;3.47;;
25972;SDS011;13765;51.166;4.466;2023-07-24T03:28:40;8.82;;;3.17;;
25972;SDS011;13765;51.166;4.466;2023-07-24T03:31:05;9.52;;;3.35;;
25972;SDS011;13765;51.166;4.466;2023-07-24T03:33:38;7.78;;;3.42;;
25972;SDS011;13765;51.166;4.466;2023-07-24T03:36:04;10.85;;;3.40;;
25972;SDS011;13765;51.166;4.466;2023-07-24T03:38:32;9.05;;;3.50;;
25972;SDS011;13765;51.166;4.466;2023-07-24T03:40:57;8.30;;;3.03;;
25972;SDS011;13765;51.166;4.466;2023-07-24T03:43:23;5.90;;;2.67;;
25972;SDS011;13765;51.166;4.466;2023-07-24T03:45:54;9.10;;;3.30;;
25972;SDS011;13765;51.166;4.466;2023-07-24T03:48:24;6.22;;;2.85;;
25972;SDS011;13765;51.166;4.466;2023-07-24T03:50:50;10.80;;;3.50;;
25972;SDS011;13765;51.166;4.466;2023-07-24T03:53:22;9.98;;;3.30;;
25972;SDS011;13765;51.166;4.466;2023-07-24T03:55:48;10.48;;;3.40;;
25972;SDS011;13765;51.166;4.466;2023-07-24T03:58:15;7.45;;;2.95;;
25972;SDS011;13765;51.166;4.466;2023-07-24T04:00:41;7.15;;;2.80;;
25972;SDS011;13765;51.166;4.466;2023-07-24T04:03:07;8.20;;;3.05;;
25972;SDS011;13765;51.166;4.466;2023-07-24T04:05:33;10.00;;;3.72;;
25972;SDS011;13765;51.166;4.466;2023-07-24T04:08:00;7.68;;;3.00;;
25972;SDS011;13765;51.166;4.466;2023-07-24T04:10:25;9.55;;;3.10;;
25972;SDS011;13765;51.166;4.466;2023-07-24T04:12:51;8.95;;;3.42;;
25972;SDS011;13765;51.166;4.466;2023-07-24T04:15:19;8.63;;;3.20;;
25972;SDS011;13765;51.166;4.466;2023-07-24T04:17:45;11.18;;;3.13;;
25972;SDS011;13765;51.166;4.466;2023-07-24T04:20:11;8.18;;;3.38;;
25972;SDS011;13765;51.166;4.466;2023-07-24T04:22:36;10.55;;;3.78;;
25972;SDS011;13765;51.166;4.466;2023-07-24T04:25:02;10.55;;;3.45;;
25972;SDS011;13765;51.166;4.466;2023-07-24T04:27:28;9.07;;;3.40;;
25972;SDS011;13765;51.166;4.466;2023-07-24T04:29:54;7.40;;;3.28;;
25972;SDS011;13765;51.166;4.466;2023-07-24T04:32:22;5.20;;;2.83;;
25972;SDS011;13765;51.166;4.466;2023-07-24T04:34:47;7.07;;;2.80;;
25972;SDS011;13765;51.166;4.466;2023-07-24T04:37:13;7.30;;;3.05;;
25972;SDS011;13765;51.166;4.466;2023-07-24T04:39:39;8.25;;;3.15;;
25972;SDS011;13765;51.166;4.466;2023-07-24T04:42:05;6.70;;;2.83;;
25972;SDS011;13765;51.166;4.466;2023-07-24T04:44:32;6.22;;;2.75;;
25972;SDS011;13765;51.166;4.466;2023-07-24T04:46:58;10.18;;;3.50;;
25972;SDS011;13765;51.166;4.466;2023-07-24T04:49:30;8.10;;;3.08;;
25972;SDS011;13765;51.166;4.466;2023-07-24T04:51:57;9.57;;;3.67;;
25972;SDS011;13765;51.166;4.466;2023-07-24T04:54:23;9.70;;;3.50;;
25972;SDS011;13765;51.166;4.466;2023-07-24T04:56:49;7.05;;;3.08;;
25972;SDS011;13765;51.166;4.466;2023-07-24T04:59:19;9.98;;;3.60;;
25972;SDS011;13765;51.166;4.466;2023-07-24T05:01:45;8.88;;;3.30;;
25972;SDS011;13765;51.166;4.466;2023-07-24T05:04:12;8.93;;;2.97;;
25972;SDS011;13765;51.166;4.466;2023-07-24T05:06:40;9.30;;;3.58;;
25972;SDS011;13765;51.166;4.466;2023-07-24T05:09:08;8.68;;;3.25;;
25972;SDS011;13765;51.166;4.466;2023-07-24T05:11:34;8.50;;;3.45;;
25972;SDS011;13765;51.166;4.466;2023-07-24T05:13:59;10.02;;;3.72;;
25972;SDS011;13765;51.166;4.466;2023-07-24T05:16:27;7.00;;;3.20;;
25972;SDS011;13765;51.166;4.466;2023-07-24T05:18:53;10.18;;;3.30;;
25972;SDS011;13765;51.166;4.466;2023-07-24T05:21:18;8.93;;;3.58;;
25972;SDS011;13765;51.166;4.466;2023-07-24T05:23:46;9.05;;;3.00;;
25972;SDS011;13765;51.166;4.466;2023-07-24T05:26:14;7.30;;;3.05;;
25972;SDS011;13765;51.166;4.466;2023-07-24T05:28:40;7.60;;;2.90;;
25972;SDS011;13765;51.166;4.466;2023-07-24T05:31:05;7.43;;;2.85;;
25972;SDS011;13765;51.166;4.466;2023-07-24T05:33:38;8.88;;;3.15;;
25972;SDS011;13765;51.166;4.466;2023-07-24T05:36:04;6.65;;;2.40;;
25972;SDS011;13765;51.166;4.466;2023-07-24T05:38:30;9.23;;;3.35;;
25972;SDS011;13765;51.166;4.466;2023-07-24T05:40:59;8.70;;;3.40;;
25972;SDS011;13765;51.166;4.466;2023-07-24T05:43:26;7.90;;;3.13;;
25972;SDS011;13765;51.166;4.466;2023-07-24T05:45:52;10.82;;;3.28;;
25972;SDS011;13765;51.166;4.466;2023-07-24T05:48:19;6.90;;;3.08;;
25972;SDS011;13765;51.166;4.466;2023-07-24T05:50:46;8.95;;;3.40;;
25972;SDS011;13765;51.166;4.466;2023-07-24T05:53:12;8.10;;;3.45;;
25972;SDS011;13765;51.166;4.466;2023-07-24T05:55:39;9.55;;;3.15;;
25972;SDS011;13765;51.166;4.466;2023-07-24T05:58:04;10.57;;;2.70;;
25972;SDS011;13765;51.166;4.466;2023-07-24T06:00:30;8.35;;;3.30;;
25972;SDS011;13765;51.166;4.466;2023-07-24T06:02:56;9.07;;;3.30;;
25972;SDS011;13765;51.166;4.466;2023-07-24T06:05:24;11.70;;;3.55;;
25972;SDS011;13765;51.166;4.466;2023-07-24T06:07:49;7.95;;;3.17;;
25972;SDS011;13765;51.166;4.466;2023-07-24T06:10:15;8.75;;;3.35;;
25972;SDS011;13765;51.166;4.466;2023-07-24T06:12:43;9.52;;;3.15;;
25972;SDS011;13765;51.166;4.466;2023-07-24T06:15:09;9.63;;;3.35;;
25972;SDS011;13765;51.166;4.466;2023-07-24T06:17:35;6.78;;;2.80;;
25972;SDS011;13765;51.166;4.466;2023-07-24T06:20:03;9.38;;;3.15;;
25972;SDS011;13765;51.166;4.466;2023-07-24T06:22:32;6.75;;;3.10;;
25972;SDS011;13765;51.166;4.466;2023-07-24T06:25:00;8.60;;;3.20;;
25972;SDS011;13765;51.166;4.466;2023-07-24T06:27:25;10.15;;;3.05;;
25972;SDS011;13765;51.166;4.466;2023-07-24T06:29:53;11.75;;;3.65;;
25972;SDS011;13765;51.166;4.466;2023-07-24T06:32:21;6.90;;;2.95;;
25972;SDS011;13765;51.166;4.466;2023-07-24T06:34:49;8.20;;;3.20;;
25972;SDS011;13765;51.166;4.466;2023-07-24T06:37:15;8.48;;;3.40;;
25972;SDS011;13765;51.166;4.466;2023-07-24T06:39:41;8.30;;;2.80;;
25972;SDS011;13765;51.166;4.466;2023-07-24T06:42:07;6.05;;;2.40;;
25972;SDS011;13765;51.166;4.466;2023-07-24T06:44:35;13.52;;;3.67;;
25972;SDS011;13765;51.166;4.466;2023-07-24T06:47:03;9.27;;;3.80;;
25972;SDS011;13765;51.166;4.466;2023-07-24T06:49:31;6.93;;;3.08;;
25972;SDS011;13765;51.166;4.466;2023-07-24T06:52:01;8.77;;;3.65;;
25972;SDS011;13765;51.166;4.466;2023-07-24T06:54:27;8.70;;;3.30;;
25972;SDS011;13765;51.166;4.466;2023-07-24T06:56:52;6.85;;;2.90;;
25972;SDS011;13765;51.166;4.466;2023-07-24T06:59:18;7.65;;;3.03;;
25972;SDS011;13765;51.166;4.466;2023-07-24T07:01:43;10.48;;;3.58;;
25972;SDS011;13765;51.166;4.466;2023-07-24T07:04:09;9.93;;;3.35;;
25972;SDS011;13765;51.166;4.466;2023-07-24T07:06:36;8.93;;;3.60;;
25972;SDS011;13765;51.166;4.466;2023-07-24T07:09:04;8.48;;;3.30;;
25972;SDS011;13765;51.166;4.466;2023-07-24T07:11:30;7.70;;;3.15;;
25972;SDS011;13765;51.166;4.466;2023-07-24T07:14:00;9.35;;;4.13;;
25972;SDS011;13765;51.166;4.466;2023-07-24T07:16:28;10.55;;;3.33;;
25972;SDS011;13765;51.166;4.466;2023-07-24T07:18:54;9.52;;;3.67;;
25972;SDS011;13765;51.166;4.466;2023-07-24T07:21:21;10.55;;;3.50;;
25972;SDS011;13765;51.166;4.466;2023-07-24T07:23:47;9.15;;;3.95;;
25972;SDS011;13765;51.166;4.466;2023-07-24T07:26:15;10.32;;;3.50;;
25972;SDS011;13765;51.166;4.466;2023-07-24T07:28:41;9.13;;;4.03;;
25972;SDS011;13765;51.166;4.466;2023-07-24T07:31:07;12.10;;;4.00;;
25972;SDS011;13765;51.166;4.466;2023-07-24T07:33:33;10.48;;;3.80;;
25972;SDS011;13765;51.166;4.466;2023-07-24T07:36:01;12.25;;;4.20;;
25972;SDS011;13765;51.166;4.466;2023-07-24T07:38:27;10.48;;;3.70;;
25972;SDS011;13765;51.166;4.466;2023-07-24T07:40:53;9.75;;;3.75;;
25972;SDS011;13765;51.166;4.466;2023-07-24T07:43:20;11.27;;;4.05;;
25972;SDS011;13765;51.166;4.466;2023-07-24T07:45:46;11.43;;;4.80;;
25972;SDS011;13765;51.166;4.466;2023-07-24T07:48:14;8.88;;;3.35;;
25972;SDS011;13765;51.166;4.466;2023-07-24T07:50:40;9.05;;;3.90;;
25972;SDS011;13765;51.166;4.466;2023-07-24T07:53:06;10.10;;;4.15;;
25972;SDS011;13765;51.166;4.466;2023-07-24T07:55:31;10.82;;;4.43;;
25972;SDS011;13765;51.166;4.466;2023-07-24T07:57:59;10.15;;;3.80;;
25972;SDS011;13765;51.166;4.466;2023-07-24T08:00:27;9.35;;;3.92;;
25972;SDS011;13765;51.166;4.466;2023-07-24T08:02:53;9.70;;;3.63;;
25972;SDS011;13765;51.166;4.466;2023-07-24T08:05:21;7.68;;;4.18;;
25972;SDS011;13765;51.166;4.466;2023-07-24T08:07:46;9.70;;;3.67;;
25972;SDS011;13765;51.166;4.466;2023-07-24T08:10:14;6.93;;;3.58;;
25972;SDS011;13765;51.166;4.466;2023-07-24T08:12:41;8.90;;;3.53;;
25972;SDS011;13765;51.166;4.466;2023-07-24T08:15:07;7.32;;;3.25;;
25972;SDS011;13765;51.166;4.466;2023-07-24T08:17:36;5.47;;;2.80;;
25972;SDS011;13765;51.166;4.466;2023-07-24T08:20:02;7.72;;;2.85;;
25972;SDS011;13765;51.166;4.466;2023-07-24T08:22:33;5.53;;;3.10;;
25972;SDS011;13765;51.166;4.466;2023-07-24T08:24:59;9.18;;;3.33;;
25972;SDS011;13765;51.166;4.466;2023-07-24T08:27:26;5.28;;;3.00;;
25972;SDS011;13765;51.166;4.466;2023-07-24T08:29:55;6.07;;;2.55;;
25972;SDS011;13765;51.166;4.466;2023-07-24T08:32:20;6.07;;;3.08;;
25972;SDS011;13765;51.166;4.466;2023-07-24T08:34:46;7.57;;;3.28;;
25972;SDS011;13765;51.166;4.466;2023-07-24T08:37:11;7.07;;;2.83;;
25972;SDS011;13765;51.166;4.466;2023-07-24T08:39:37;8.50;;;3.30;;
25972;SDS011;13765;51.166;4.466;2023-07-24T08:42:10;5.82;;;2.80;;
25972;SDS011;13765;51.166;4.466;2023-07-24T08:44:37;6.72;;;2.72;;
25972;SDS011;13765;51.166;4.466;2023-07-24T08:47:03;7.35;;;3.28;;
25972;SDS011;13765;51.166;4.466;2023-07-24T08:49:29;8.18;;;2.97;;
25972;SDS011;13765;51.166;4.466;2023-07-24T08:51:58;7.38;;;3.20;;
25972;SDS011;13765;51.166;4.466;2023-07-24T08:54:26;8.80;;;3.40;;
25972;SDS011;13765;51.166;4.466;2023-07-24T08:56:55;8.05;;;3.88;;
25972;SDS011;13765;51.166;4.466;2023-07-24T08:59:21;10.38;;;3.58;;
25972;SDS011;13765;51.166;4.466;2023-07-24T09:01:51;7.22;;;3.45;;
25972;SDS011;13765;51.166;4.466;2023-07-24T09:04:17;7.05;;;3.22;;
25972;SDS011;13765;51.166;4.466;2023-07-24T09:06:42;7.18;;;2.88;;
25972;SDS011;13765;51.166;4.466;2023-07-24T09:09:15;8.77;;;3.03;;
25972;SDS011;13765;51.166;4.466;2023-07-24T09:11:51;11.32;;;3.63;;
25972;SDS011;13765;51.166;4.466;2023-07-24T09:17:12;7.07;;;2.83;;
25972;SDS011;13765;51.166;4.466;2023-07-24T09:19:39;6.32;;;2.60;;
25972;SDS011;13765;51.166;4.466;2023-07-24T09:24:53;8.75;;;3.00;;
25972;SDS011;13765;51.166;4.466;2023-07-24T09:27:20;7.20;;;2.90;;
25972;SDS011;13765;51.166;4.466;2023-07-24T09:29:51;9.18;;;3.13;;
25972;SDS011;13765;51.166;4.466;2023-07-24T09:32:20;8.00;;;2.85;;
25972;SDS011;13765;51.166;4.466;2023-07-24T09:34:52;7.72;;;3.28;;
25972;SDS011;13765;51.166;4.466;2023-07-24T09:39:50;7.93;;;3.28;;
25972;SDS011;13765;51.166;4.466;2023-07-24T09:42:15;8.77;;;2.88;;
25972;SDS011;13765;51.166;4.466;2023-07-24T09:44:41;10.20;;;3.40;;
25972;SDS011;13765;51.166;4.466;2023-07-24T09:47:09;5.68;;;3.13;;
25972;SDS011;13765;51.166;4.466;2023-07-24T09:49:35;8.70;;;3.38;;
25972;SDS011;13765;51.166;4.466;2023-07-24T09:52:01;7.28;;;2.80;;
25972;SDS011;13765;51.166;4.466;2023-07-24T09:54:33;9.67;;;3.27;;
25972;SDS011;13765;51.166;4.466;2023-07-24T09:57:13;6.43;;;2.80;;
25972;SDS011;13765;51.166;4.466;2023-07-24T09:59:41;9.98;;;3.25;;
25972;SDS011;13765;51.166;4.466;2023-07-24T10:02:08;8.73;;;2.97;;
25972;SDS011;13765;51.166;4.466;2023-07-24T10:04:37;8.57;;;2.85;;
25972;SDS011;13765;51.166;4.466;2023-07-24T10:07:05;8.30;;;2.78;;
25972;SDS011;13765;51.166;4.466;2023-07-24T10:09:31;5.93;;;2.83;;
25972;SDS011;13765;51.166;4.466;2023-07-24T10:12:01;8.18;;;3.10;;
25972;SDS011;13765;51.166;4.466;2023-07-24T10:14:28;10.82;;;3.45;;
25972;SDS011;13765;51.166;4.466;2023-07-24T10:16:55;6.97;;;2.95;;
25972;SDS011;13765;51.166;4.466;2023-07-24T10:19:21;7.53;;;3.42;;
25972;SDS011;13765;51.166;4.466;2023-07-24T10:21:47;7.72;;;3.00;;
25972;SDS011;13765;51.166;4.466;2023-07-24T10:24:16;6.65;;;2.92;;
25972;SDS011;13765;51.166;4.466;2023-07-24T10:26:42;6.00;;;2.80;;
25972;SDS011;13765;51.166;4.466;2023-07-24T10:29:08;5.88;;;2.88;;
25972;SDS011;13765;51.166;4.466;2023-07-24T10:31:38;9.93;;;3.38;;
25972;SDS011;13765;51.166;4.466;2023-07-24T10:34:04;8.18;;;3.42;;
25972;SDS011;13765;51.166;4.466;2023-07-24T10:36:34;9.90;;;3.38;;
25972;SDS011;13765;51.166;4.466;2023-07-24T10:39:01;8.20;;;3.38;;
25972;SDS011;13765;51.166;4.466;2023-07-24T10:41:34;7.97;;;3.22;;
25972;SDS011;13765;51.166;4.466;2023-07-24T10:44:01;10.38;;;3.40;;
25972;SDS011;13765;51.166;4.466;2023-07-24T10:46:39;8.48;;;3.28;;
25972;SDS011;13765;51.166;4.466;2023-07-24T10:49:11;6.82;;;3.15;;
25972;SDS011;13765;51.166;4.466;2023-07-24T10:51:36;8.68;;;3.25;;
25972;SDS011;13765;51.166;4.466;2023-07-24T10:54:05;8.38;;;3.50;;
25972;SDS011;13765;51.166;4.466;2023-07-24T10:56:31;7.85;;;3.17;;
25972;SDS011;13765;51.166;4.466;2023-07-24T10:59:03;9.23;;;3.72;;
25972;SDS011;13765;51.166;4.466;2023-07-24T11:01:32;11.20;;;4.68;;
25972;SDS011;13765;51.166;4.466;2023-07-24T11:03:58;11.02;;;3.67;;
25972;SDS011;13765;51.166;4.466;2023-07-24T11:06:27;8.52;;;3.53;;
25972;SDS011;13765;51.166;4.466;2023-07-24T11:08:53;9.52;;;3.63;;
25972;SDS011;13765;51.166;4.466;2023-07-24T11:11:30;8.40;;;3.40;;
25972;SDS011;13765;51.166;4.466;2023-07-24T11:14:02;8.85;;;3.85;;
25972;SDS011;13765;51.166;4.466;2023-07-24T11:16:30;9.27;;;3.42;;
25972;SDS011;13765;51.166;4.466;2023-07-24T11:18:58;10.00;;;3.72;;
25972;SDS011;13765;51.166;4.466;2023-07-24T11:21:23;7.68;;;3.83;;
25972;SDS011;13765;51.166;4.466;2023-07-24T11:23:53;9.57;;;3.67;;
25972;SDS011;13765;51.166;4.466;2023-07-24T11:26:21;8.13;;;3.58;;
25972;SDS011;13765;51.166;4.466;2023-07-24T11:28:50;9.38;;;3.95;;
25972;SDS011;13765;51.166;4.466;2023-07-24T11:31:17;9.48;;;4.07;;
25972;SDS011;13765;51.166;4.466;2023-07-24T11:33:48;9.45;;;4.28;;
25972;SDS011;13765;51.166;4.466;2023-07-24T11:36:17;8.90;;;4.00;;
25972;SDS011;13765;51.166;4.466;2023-07-24T11:38:46;7.38;;;3.60;;
25972;SDS011;13765;51.166;4.466;2023-07-24T11:41:12;8.95;;;3.80;;
25972;SDS011;13765;51.166;4.466;2023-07-24T11:43:44;11.68;;;4.80;;
25972;SDS011;13765;51.166;4.466;2023-07-24T11:46:27;10.68;;;4.15;;
25972;SDS011;13765;51.166;4.466;2023-07-24T11:48:59;10.75;;;4.53;;
25972;SDS011;13765;51.166;4.466;2023-07-24T11:51:27;12.20;;;4.38;;
25972;SDS011;13765;51.166;4.466;2023-07-24T11:54:07;11.38;;;4.35;;
25972;SDS011;13765;51.166;4.466;2023-07-24T11:56:33;14.07;;;5.15;;
25972;SDS011;13765;51.166;4.466;2023-07-24T11:59:20;11.30;;;4.75;;
25972;SDS011;13765;51.166;4.466;2023-07-24T12:01:48;12.85;;;4.55;;
25972;SDS011;13765;51.166;4.466;2023-07-24T12:04:18;11.18;;;5.30;;
25972;SDS011;13765;51.166;4.466;2023-07-24T12:06:45;14.70;;;5.25;;
25972;SDS011;13765;51.166;4.466;2023-07-24T12:09:11;18.15;;;5.97;;
25972;SDS011;13765;51.166;4.466;2023-07-24T12:11:40;15.82;;;5.47;;
25972;SDS011;13765;51.166;4.466;2023-07-24T12:14:09;15.20;;;5.63;;
25972;SDS011;13765;51.166;4.466;2023-07-24T12:16:38;11.93;;;5.35;;
25972;SDS011;13765;51.166;4.466;2023-07-24T12:19:05;15.93;;;4.55;;
25972;SDS011;13765;51.166;4.466;2023-07-24T12:21:35;15.88;;;4.97;;
25972;SDS011;13765;51.166;4.466;2023-07-24T12:24:05;10.18;;;4.53;;
25972;SDS011;13765;51.166;4.466;2023-07-24T12:26:30;14.45;;;4.88;;
25972;SDS011;13765;51.166;4.466;2023-07-24T12:29:03;11.95;;;4.22;;
25972;SDS011;13765;51.166;4.466;2023-07-24T12:31:31;12.90;;;5.32;;
25972;SDS011;13765;51.166;4.466;2023-07-24T12:33:56;13.95;;;5.47;;
25972;SDS011;13765;51.166;4.466;2023-07-24T12:36:24;13.00;;;5.03;;
25972;SDS011;13765;51.166;4.466;2023-07-24T12:38:52;13.50;;;4.75;;
25972;SDS011;13765;51.166;4.466;2023-07-24T12:41:20;10.55;;;4.15;;
25972;SDS011;13765;51.166;4.466;2023-07-24T12:43:50;11.40;;;4.15;;
25972;SDS011;13765;51.166;4.466;2023-07-24T12:46:16;12.27;;;4.65;;
25972;SDS011;13765;51.166;4.466;2023-07-24T12:48:41;9.80;;;3.58;;
25972;SDS011;13765;51.166;4.466;2023-07-24T12:51:09;11.25;;;3.90;;
25972;SDS011;13765;51.166;4.466;2023-07-24T12:53:37;11.70;;;4.15;;
25972;SDS011;13765;51.166;4.466;2023-07-24T12:56:07;10.00;;;4.28;;
25972;SDS011;13765;51.166;4.466;2023-07-24T12:58:33;12.98;;;4.53;;
25972;SDS011;13765;51.166;4.466;2023-07-24T13:00:58;9.40;;;4.00;;
25972;SDS011;13765;51.166;4.466;2023-07-24T13:03:24;9.38;;;4.03;;
25972;SDS011;13765;51.166;4.466;2023-07-24T13:05:50;7.75;;;3.63;;
25972;SDS011;13765;51.166;4.466;2023-07-24T13:08:15;10.50;;;3.92;;
25972;SDS011;13765;51.166;4.466;2023-07-24T13:10:41;11.90;;;4.15;;
25972;SDS011;13765;51.166;4.466;2023-07-24T13:13:06;10.60;;;3.75;;
25972;SDS011;13765;51.166;4.466;2023-07-24T13:15:34;9.27;;;3.70;;
25972;SDS011;13765;51.166;4.466;2023-07-24T13:17:59;8.52;;;3.60;;
25972;SDS011;13765;51.166;4.466;2023-07-24T13:20:25;11.68;;;4.38;;
25972;SDS011;13765;51.166;4.466;2023-07-24T13:22:55;10.90;;;4.57;;
25972;SDS011;13765;51.166;4.466;2023-07-24T13:25:21;10.20;;;4.07;;
25972;SDS011;13765;51.166;4.466;2023-07-24T13:27:46;7.60;;;3.90;;
25972;SDS011;13765;51.166;4.466;2023-07-24T13:30:12;15.52;;;5.03;;
25972;SDS011;13765;51.166;4.466;2023-07-24T13:32:40;16.38;;;5.90;;
25972;SDS011;13765;51.166;4.466;2023-07-24T13:35:06;15.80;;;5.63;;
25972;SDS011;13765;51.166;4.466;2023-07-24T13:37:32;12.85;;;4.40;;
25972;SDS011;13765;51.166;4.466;2023-07-24T13:39:57;11.57;;;4.30;;
25972;SDS011;13765;51.166;4.466;2023-07-24T13:42:28;12.63;;;5.05;;
25972;SDS011;13765;51.166;4.466;2023-07-24T13:44:53;11.48;;;4.40;;
25972;SDS011;13765;51.166;4.466;2023-07-24T13:47:19;10.48;;;4.20;;
25972;SDS011;13765;51.166;4.466;2023-07-24T13:49:46;15.82;;;5.35;;
25972;SDS011;13765;51.166;4.466;2023-07-24T13:52:13;24.08;;;5.90;;
25972;SDS011;13765;51.166;4.466;2023-07-24T13:54:39;9.80;;;4.55;;
25972;SDS011;13765;51.166;4.466;2023-07-24T13:57:07;10.65;;;4.55;;
25972;SDS011;13765;51.166;4.466;2023-07-24T13:59:34;11.98;;;4.70;;
25972;SDS011;13765;51.166;4.466;2023-07-24T14:02:00;11.52;;;5.03;;
25972;SDS011;13765;51.166;4.466;2023-07-24T14:04:25;9.52;;;4.05;;
25972;SDS011;13765;51.166;4.466;2023-07-24T14:06:51;10.38;;;4.10;;
25972;SDS011;13765;51.166;4.466;2023-07-24T14:09:19;13.30;;;4.97;;
25972;SDS011;13765;51.166;4.466;2023-07-24T14:11:47;12.88;;;5.10;;
25972;SDS011;13765;51.166;4.466;2023-07-24T14:14:15;13.35;;;6.22;;
25972;SDS011;13765;51.166;4.466;2023-07-24T14:16:45;12.00;;;5.07;;
25972;SDS011;13765;51.166;4.466;2023-07-24T14:19:11;15.02;;;6.05;;
25972;SDS011;13765;51.166;4.466;2023-07-24T14:21:36;15.98;;;6.32;;
25972;SDS011;13765;51.166;4.466;2023-07-24T14:24:02;11.60;;;5.05;;
25972;SDS011;13765;51.166;4.466;2023-07-24T14:26:28;14.48;;;5.22;;
25972;SDS011;13765;51.166;4.466;2023-07-24T14:28:53;12.45;;;4.40;;
25972;SDS011;13765;51.166;4.466;2023-07-24T14:31:19;11.30;;;4.60;;
25972;SDS011;13765;51.166;4.466;2023-07-24T14:33:45;15.80;;;5.28;;
25972;SDS011;13765;51.166;4.466;2023-07-24T14:36:11;12.68;;;4.85;;
25972;SDS011;13765;51.166;4.466;2023-07-24T14:38:39;11.77;;;4.53;;
25972;SDS011;13765;51.166;4.466;2023-07-24T14:41:04;12.82;;;4.93;;
25972;SDS011;13765;51.166;4.466;2023-07-24T14:43:30;11.93;;;4.68;;
25972;SDS011;13765;51.166;4.466;2023-07-24T14:45:58;12.75;;;4.47;;
25972;SDS011;13765;51.166;4.466;2023-07-24T14:48:24;13.75;;;4.88;;
25972;SDS011;13765;51.166;4.466;2023-07-24T14:50:51;13.68;;;4.53;;
25972;SDS011;13765;51.166;4.466;2023-07-24T14:53:17;12.40;;;4.65;;
25972;SDS011;13765;51.166;4.466;2023-07-24T14:55:43;11.68;;;4.82;;